Time;durP1;ratioP1;P1;durP2;ratioP2;P2;SDS_P1;SDS_P2;PMS_P1;PMS_P2;Temp;Humidity;BMP_temperature;BMP_pressure;BME280_temperature;BME280_humidity;BME280_pressure;Samples;Min_cycle;Max_cycle;Signal;HPM_P1;HPM_P2
2023/06/24 00:04:47;;;;;;;3.97;3.58;;;;;;;18.92;57.08;97462.25;10359580;28;20121;-31
2023/06/24 00:09:47;;;;;;;5.10;3.77;;;;;;;18.84;57.31;97448.63;10378176;28;20026;-31
2023/06/24 00:14:49;;;;;;;5.85;3.92;;;;;;;18.79;57.29;97456.19;10358926;28;20293;-31
2023/06/24 00:19:49;;;;;;;5.80;4.32;;;;;;;18.68;57.86;97460.28;10378443;28;20033;-31
2023/06/24 00:24:50;;;;;;;3.30;3.00;;;;;;;18.66;57.79;97456.03;10372308;28;20034;-31
2023/06/24 00:29:50;;;;;;;4.43;3.80;;;;;;;18.85;57.23;97455.38;10377002;28;20293;-31
2023/06/24 00:34:51;;;;;;;4.83;3.77;;;;;;;18.77;57.82;97454.47;10367933;28;20287;-31
2023/06/24 00:39:51;;;;;;;5.70;3.75;;;;;;;18.67;57.69;97465.34;10377708;28;20319;-31
2023/06/24 00:44:52;;;;;;;4.38;3.85;;;;;;;18.54;58.30;97460.97;10360992;28;20412;-31
2023/06/24 00:49:52;;;;;;;4.38;3.15;;;;;;;18.65;57.79;97464.47;10368295;28;20036;-31
2023/06/24 00:54:53;;;;;;;5.07;4.18;;;;;;;18.52;58.26;97466.03;10357981;28;20504;-31
2023/06/24 00:59:59;;;;;;;4.32;3.90;;;;;;;18.60;58.23;97469.47;10368167;28;20030;-31
2023/06/24 01:05:00;;;;;;;4.65;4.18;;;;;;;18.61;57.86;97472.88;10380739;28;20072;-31
2023/06/24 01:10:00;;;;;;;3.93;3.33;;;;;;;18.66;57.98;97466.19;10376976;28;20053;-31
2023/06/24 01:15:03;;;;;;;4.68;3.72;;;;;;;18.63;58.00;97454.31;10376413;28;20664;-31
2023/06/24 01:20:09;;;;;;;5.85;3.40;;;;;;;18.70;57.71;97453.56;10364687;28;20061;-31
2023/06/24 01:25:22;;;;;;;5.20;2.97;;;;;;;18.63;57.73;97467.00;10375927;28;20029;-31
2023/06/24 01:30:44;;;;;;;4.43;3.40;;;;;;;18.60;57.66;97463.56;10349896;28;20314;-31
2023/06/24 01:35:47;;;;;;;4.30;3.33;;;;;;;18.55;57.81;97458.44;10349771;28;20057;-31
2023/06/24 01:40:49;;;;;;;4.43;3.63;;;;;;;18.58;58.11;97455.09;10366176;28;20034;-31
2023/06/24 01:45:52;;;;;;;5.43;4.05;;;;;;;18.50;58.29;97454.16;10371866;28;20045;-31
2023/06/24 01:51:00;;;;;;;4.88;3.92;;;;;;;18.50;58.36;97455.00;10372124;28;20083;-32
2023/06/24 01:56:03;;;;;;;5.53;4.07;;;;;;;18.48;59.00;97455.81;10339576;28;20091;-31
2023/06/24 02:01:05;;;;;;;4.47;3.85;;;;;;;18.38;59.20;97466.69;10356617;28;20124;-31
2023/06/24 02:06:09;;;;;;;5.65;3.55;;;;;;;18.30;58.93;97460.66;10370784;28;20325;-30
2023/06/24 02:11:12;;;;;;;5.45;3.95;;;;;;;18.41;58.85;97454.06;10351191;28;20046;-30
2023/06/24 02:16:15;;;;;;;4.15;3.72;;;;;;;18.25;59.78;97459.75;10353285;28;20096;-31
2023/06/24 02:21:19;;;;;;;6.47;3.50;;;;;;;18.13;59.97;97457.91;10352509;28;20076;-30
2023/06/24 02:26:21;;;;;;;4.18;3.78;;;;;;;18.03;60.01;97456.09;10356201;28;20034;-30
2023/06/24 02:31:22;;;;;;;5.57;4.22;;;;;;;17.93;59.85;97459.28;10372888;28;20033;-31
2023/06/24 02:36:23;;;;;;;4.38;3.75;;;;;;;18.01;59.48;97459.41;10388346;28;20729;-30
2023/06/24 02:41:23;;;;;;;4.10;3.45;;;;;;;18.09;59.23;97465.44;10402441;28;20222;-30
2023/06/24 02:46:29;;;;;;;4.15;3.75;;;;;;;18.21;58.73;97468.13;10410756;28;20025;-31
2023/06/24 02:51:30;;;;;;;4.43;3.90;;;;;;;18.06;59.51;97466.25;10391435;28;20056;-31
2023/06/24 02:56:32;;;;;;;5.43;4.20;;;;;;;18.11;58.99;97461.25;10387356;28;20068;-30
2023/06/24 03:01:38;;;;;;;5.15;3.88;;;;;;;18.04;59.41;97461.97;10361452;28;20158;-31
2023/06/24 03:06:40;;;;;;;4.85;4.32;;;;;;;17.97;59.49;97450.91;10391351;28;20045;-30
2023/06/24 03:11:44;;;;;;;5.30;3.85;;;;;;;18.09;59.25;97465.44;10370167;28;20046;-31
2023/06/24 03:16:49;;;;;;;4.72;4.00;;;;;;;18.01;59.48;97472.09;10337847;28;20030;-30
2023/06/24 03:21:51;;;;;;;8.00;4.22;;;;;;;18.12;59.14;97470.53;10405439;28;20529;-31
2023/06/24 03:26:56;;;;;;;5.30;3.90;;;;;;;18.13;59.50;97469.69;10372351;28;20115;-31
2023/06/24 03:31:59;;;;;;;5.72;3.75;;;;;;;18.04;59.15;97477.19;10378320;28;20087;-31
2023/06/24 03:37:01;;;;;;;5.95;4.40;;;;;;;18.10;59.48;97477.28;10370490;28;20444;-31
2023/06/24 03:42:02;;;;;;;3.60;3.30;;;;;;;18.09;59.12;97478.13;10373190;28;20037;-31
2023/06/24 03:47:03;;;;;;;5.85;4.43;;;;;;;18.04;59.79;97477.19;10338973;28;20031;-31
2023/06/24 03:52:08;;;;;;;5.15;4.40;;;;;;;18.09;59.37;97483.19;10362889;28;20039;-30
2023/06/24 03:57:09;;;;;;;5.18;4.20;;;;;;;17.96;60.14;97484.69;10384986;28;20033;-31
2023/06/24 04:02:10;;;;;;;4.70;3.72;;;;;;;17.94;60.24;97481.28;10370852;28;20208;-31
2023/06/24 04:07:11;;;;;;;7.07;4.30;;;;;;;17.97;60.09;97483.00;10358554;28;20040;-31
2023/06/24 04:12:11;;;;;;;4.78;4.38;;;;;;;17.90;60.38;97492.19;10392425;28;20033;-31
2023/06/24 04:17:12;;;;;;;4.90;4.25;;;;;;;17.84;60.76;97493.78;10391322;28;20033;-31
2023/06/24 04:22:12;;;;;;;6.10;4.37;;;;;;;17.82;60.61;97492.94;10338442;28;20506;-31
2023/06/24 04:27:13;;;;;;;5.25;4.07;;;;;;;17.93;60.69;97489.69;10367970;28;20300;-31
2023/06/24 04:32:13;;;;;;;7.55;4.25;;;;;;;17.86;60.58;97497.19;10368121;28;20041;-31
2023/06/24 04:37:14;;;;;;;5.18;4.35;;;;;;;17.66;61.11;97498.59;10383352;28;20029;-31
2023/06/24 04:42:14;;;;;;;5.20;4.27;;;;;;;17.85;60.45;97505.63;10343481;28;20493;-31
2023/06/24 04:47:15;;;;;;;4.68;3.95;;;;;;;18.01;60.14;97507.56;10398567;28;20276;-31
2023/06/24 04:52:15;;;;;;;5.43;4.15;;;;;;;17.90;60.32;97504.03;10369859;28;20120;-31
2023/06/24 04:57:30;;;;;;;6.03;4.55;;;;;;;18.01;60.29;97505.84;10382336;28;20144;-31
2023/06/24 05:02:30;;;;;;;4.68;4.28;;;;;;;17.99;60.55;97506.69;10359667;28;20070;-30
2023/06/24 05:07:31;;;;;;;4.72;3.92;;;;;;;18.17;59.78;97506.94;10357359;28;20057;-30
2023/06/24 05:12:31;;;;;;;6.00;4.57;;;;;;;18.02;60.33;97507.59;10377902;28;20033;-30
2023/06/24 05:17:32;;;;;;;6.88;3.83;;;;;;;18.21;60.03;97509.53;10342786;28;20042;-31
2023/06/24 05:22:32;;;;;;;7.77;4.40;;;;;;;18.40;59.65;97508.13;10376734;28;20049;-30
2023/06/24 05:27:33;;;;;;;4.67;4.13;;;;;;;18.35;59.78;97509.75;10353159;28;20288;-30
2023/06/24 05:32:33;;;;;;;6.33;4.10;;;;;;;18.49;59.56;97509.09;10395487;28;20296;-31
2023/06/24 05:37:34;;;;;;;5.68;4.10;;;;;;;18.44;60.01;97509.88;10366769;28;20679;-31
2023/06/24 05:42:35;;;;;;;8.32;4.63;;;;;;;19.24;59.71;97504.03;10390157;28;20532;-30
2023/06/24 05:47:37;;;;;;;5.03;4.20;;;;;;;19.61;59.02;97506.06;10355246;28;20101;-30
2023/06/24 05:52:38;;;;;;;5.85;4.60;;;;;;;19.83;58.36;97510.47;10383310;28;20091;-31
2023/06/24 05:57:38;;;;;;;5.93;4.83;;;;;;;19.99;57.99;97509.72;10395360;28;20038;-31
2023/06/24 06:02:39;;;;;;;5.67;4.77;;;;;;;20.13;58.40;97513.22;10392141;28;20288;-31
2023/06/24 06:07:39;;;;;;;6.32;4.40;;;;;;;20.18;58.36;97519.22;10406942;28;20276;-31
2023/06/24 06:12:42;;;;;;;5.32;4.82;;;;;;;20.11;58.42;97522.56;10393578;28;20030;-31
2023/06/24 06:17:42;;;;;;;7.25;4.60;;;;;;;20.08;57.75;97512.38;10412643;28;20034;-30
2023/06/24 06:22:42;;;;;;;5.27;4.03;;;;;;;20.15;57.19;97511.53;10389711;28;20030;-31
2023/06/24 06:27:45;;;;;;;6.18;5.18;;;;;;;20.14;59.46;97515.78;10383682;28;20281;-31
2023/06/24 06:32:46;;;;;;;4.97;4.45;;;;;;;20.19;57.15;97509.03;10403863;28;20039;-31
2023/06/24 06:37:51;;;;;;;5.72;4.50;;;;;;;20.15;57.22;97509.88;10396185;28;20026;-30
2023/06/24 06:42:52;;;;;;;5.83;4.40;;;;;;;20.18;57.08;97506.50;10394806;28;20140;-31
2023/06/24 06:47:52;;;;;;;9.25;5.10;;;;;;;20.29;59.31;97509.94;10363994;28;20036;-31
2023/06/24 06:52:53;;;;;;;5.07;4.33;;;;;;;20.42;58.71;97511.72;10359157;28;20033;-30
2023/06/24 06:57:53;;;;;;;6.70;4.77;;;;;;;20.36;58.51;97501.50;10382028;28;20034;-31
2023/06/24 07:02:54;;;;;;;8.77;4.68;;;;;;;20.33;57.76;97502.34;10371615;28;20026;-29
2023/06/24 07:07:54;;;;;;;6.28;4.45;;;;;;;20.27;56.70;97497.22;10379216;28;20021;-31
2023/06/24 07:12:57;;;;;;;12.93;4.90;;;;;;;20.26;57.22;97494.69;10360767;28;20072;-30
2023/06/24 07:17:58;;;;;;;5.63;3.95;;;;;;;20.25;56.95;97498.06;10371892;28;20386;-30
2023/06/24 07:22:58;;;;;;;8.43;4.30;;;;;;;20.27;56.67;97496.38;10390523;28;20419;-31
2023/06/24 07:27:59;;;;;;;5.40;4.07;;;;;;;20.30;56.67;97493.84;10390463;28;20281;-31
2023/06/24 07:33:05;;;;;;;4.40;3.80;;;;;;;20.43;56.07;97488.81;10356683;28;20704;-31
2023/06/24 07:38:05;;;;;;;6.80;3.90;;;;;;;20.54;55.53;97487.19;10372515;28;20025;-31
2023/06/24 07:43:06;;;;;;;6.32;3.50;;;;;;;20.56;55.67;97488.88;10386542;28;20482;-31
2023/06/24 07:48:07;;;;;;;4.65;3.30;;;;;;;20.52;55.48;97486.31;10366344;28;20029;-31
2023/06/24 07:53:07;;;;;;;4.22;3.65;;;;;;;20.58;55.41;97482.13;10366078;28;20096;-31
2023/06/24 07:58:08;;;;;;;4.97;3.33;;;;;;;20.49;55.90;97473.59;10382466;28;20063;-31
2023/06/24 08:03:08;;;;;;;4.20;3.47;;;;;;;20.44;55.65;97481.19;10382147;28;20338;-30
2023/06/24 08:08:09;;;;;;;6.30;3.67;;;;;;;20.42;55.56;97477.81;10368669;28;20289;-30
2023/06/24 08:13:09;;;;;;;6.55;3.85;;;;;;;20.40;55.59;97459.13;10371038;28;20295;-31
2023/06/24 08:18:10;;;;;;;6.07;3.53;;;;;;;20.45;55.79;97464.25;10364121;28;20555;-31
2023/06/24 08:23:10;;;;;;;4.95;3.20;;;;;;;20.53;55.39;97463.41;10389140;28;20045;-31
2023/06/24 08:28:10;;;;;;;4.90;4.37;;;;;;;20.66;54.58;97456.69;10378447;28;20067;-31
2023/06/24 08:33:11;;;;;;;5.03;3.45;;;;;;;20.66;54.65;97447.38;10385804;28;20041;-31
2023/06/24 08:38:11;;;;;;;4.53;3.83;;;;;;;20.60;54.95;97447.34;10384964;28;20033;-31
2023/06/24 08:43:12;;;;;;;7.78;4.30;;;;;;;20.53;55.80;97445.63;10398537;28;20037;-31
2023/06/24 08:48:13;;;;;;;4.73;3.90;;;;;;;20.56;55.68;97444.78;10376597;28;20059;-31
2023/06/24 08:53:14;;;;;;;9.40;3.63;;;;;;;20.52;55.93;97453.22;10383799;28;20308;-31
2023/06/24 08:58:15;;;;;;;9.25;4.07;;;;;;;20.51;55.66;97456.63;10378571;28;20040;-31
2023/06/24 09:03:15;;;;;;;5.28;3.88;;;;;;;20.51;55.89;97456.63;10393016;28;20033;-31
2023/06/24 09:08:16;;;;;;;4.10;3.13;;;;;;;20.50;55.91;97439.66;10366800;28;20040;-31
2023/06/24 09:13:18;;;;;;;8.05;3.58;;;;;;;20.69;53.86;97436.31;10381315;28;20816;-31
2023/06/24 09:18:19;;;;;;;6.95;4.25;;;;;;;20.79;53.88;97427.88;10374297;28;20042;-30
2023/06/24 09:23:19;;;;;;;8.17;3.67;;;;;;;20.79;54.30;97431.25;10398176;28;20111;-31
2023/06/24 09:28:20;;;;;;;4.60;2.88;;;;;;;20.66;54.85;97421.91;10369533;28;20077;-31
2023/06/24 09:33:21;;;;;;;8.70;3.57;;;;;;;20.59;54.99;97410.03;10343131;28;20046;-31
2023/06/24 09:38:32;;;;;;;5.90;3.28;;;;;;;20.55;55.39;97415.94;10378691;28;20038;-31
2023/06/24 09:43:37;;;;;;;6.22;3.15;;;;;;;20.58;54.96;97408.31;10404799;28;20041;-31
2023/06/24 09:48:37;;;;;;;4.15;3.63;;;;;;;20.55;55.17;97403.22;10397469;28;20025;-31
2023/06/24 09:53:37;;;;;;;5.88;3.13;;;;;;;20.52;55.21;97398.13;10396224;28;20033;-31
2023/06/24 09:58:40;;;;;;;9.20;3.47;;;;;;;20.51;54.98;97386.25;10381312;28;20049;-32
2023/06/24 10:03:41;;;;;;;9.60;4.13;;;;;;;20.70;53.22;97390.53;10371895;28;20657;-31
2023/06/24 10:08:42;;;;;;;11.73;3.67;;;;;;;20.84;53.14;97381.22;10382219;28;20030;-31
2023/06/24 10:13:42;;;;;;;7.93;3.20;;;;;;;20.81;53.50;97381.22;10386969;28;20084;-31
2023/06/24 10:18:45;;;;;;;5.27;3.73;;;;;;;20.73;54.46;97374.44;10388941;28;20037;-31
2023/06/24 10:23:48;;;;;;;4.28;2.78;;;;;;;20.64;55.07;97367.59;10406617;28;20382;-31
2023/06/24 10:29:06;;;;;;;5.68;3.53;;;;;;;20.60;55.46;97370.16;10397712;28;20033;-31
2023/06/24 10:34:19;;;;;;;6.22;3.58;;;;;;;20.58;55.46;97372.72;10414525;28;20033;-31
2023/06/24 10:39:46;;;;;;;6.25;3.15;;;;;;;20.58;55.52;97354.91;10393400;28;20033;-31
2023/06/24 10:44:48;;;;;;;3.33;2.67;;;;;;;20.58;55.74;97349.81;10393322;28;20088;-31
2023/06/24 10:49:49;;;;;;;6.55;3.05;;;;;;;20.62;55.40;97348.94;10374263;28;20056;-31
2023/06/24 10:54:51;;;;;;;3.47;3.08;;;;;;;20.84;55.04;97339.66;10393896;28;20124;-31
2023/06/24 10:59:56;;;;;;;3.92;3.13;;;;;;;20.85;54.90;97329.47;10384110;28;20036;-31
2023/06/24 11:04:59;;;;;;;5.20;2.92;;;;;;;20.78;55.26;97330.31;10403146;28;20119;-31
2023/06/24 11:10:05;;;;;;;3.42;2.90;;;;;;;20.70;55.80;97321.81;10372574;28;20099;-31
2023/06/24 11:15:10;;;;;;;6.35;3.00;;;;;;;20.68;55.63;97318.44;10392547;28;20035;-31
2023/06/24 11:20:14;;;;;;;8.48;3.65;;;;;;;20.64;55.79;97304.00;10384820;28;20045;-31
2023/06/24 11:25:16;;;;;;;5.78;3.28;;;;;;;20.55;56.73;97300.63;10388959;28;20029;-31
2023/06/24 11:30:17;;;;;;;10.05;3.33;;;;;;;20.63;56.14;97298.94;10383324;28;20037;-31
2023/06/24 11:35:17;;;;;;;4.75;2.63;;;;;;;20.65;56.83;97295.50;10391397;28;20030;-31
2023/06/24 11:40:19;;;;;;;8.50;3.42;;;;;;;20.80;56.84;97282.81;10358337;28;20392;-32
2023/06/24 11:45:21;;;;;;;5.22;2.72;;;;;;;20.91;56.13;97288.78;10381080;28;20046;-31
2023/06/24 11:50:26;;;;;;;6.82;3.42;;;;;;;20.86;56.29;97277.75;10365073;28;20047;-32
2023/06/24 11:55:27;;;;;;;5.70;2.95;;;;;;;20.75;56.26;97273.47;10367338;28;20523;-31
2023/06/24 12:00:29;;;;;;;4.57;3.30;;;;;;;20.69;56.54;97269.25;10392177;28;20034;-31
2023/06/24 12:05:31;;;;;;;7.95;3.00;;;;;;;20.70;56.16;97265.84;10404535;28;20416;-31
2023/06/24 12:10:33;;;;;;;11.65;3.15;;;;;;;20.72;55.73;97242.94;10385239;28;20026;-31
2023/06/24 12:15:34;;;;;;;7.18;3.10;;;;;;;20.71;56.44;97244.63;10388974;28;20472;-30
2023/06/24 12:20:36;;;;;;;5.50;3.50;;;;;;;20.71;56.25;97242.09;10378390;28;20080;-31
2023/06/24 12:25:36;;;;;;;8.10;3.45;;;;;;;20.91;55.91;97232.78;10400623;28;20041;-31
2023/06/24 12:30:37;;;;;;;8.20;3.73;;;;;;;21.00;55.37;97230.22;10380935;28;20029;-32
2023/06/24 12:35:37;;;;;;;6.73;3.20;;;;;;;20.93;55.48;97228.53;10377252;28;20060;-30
2023/06/24 12:40:37;;;;;;;9.30;3.07;;;;;;;20.84;55.76;97228.50;10367630;28;20293;-32
2023/06/24 12:45:38;;;;;;;8.70;3.23;;;;;;;20.74;56.68;97215.78;10400011;28;20645;-31
2023/06/24 12:50:39;;;;;;;12.52;3.20;;;;;;;20.83;58.22;97216.66;10385954;28;20288;-31
2023/06/24 12:55:39;;;;;;;7.70;3.30;;;;;;;20.81;57.72;97209.84;10400761;28;20080;-30
2023/06/24 13:00:39;;;;;;;14.90;3.80;;;;;;;20.79;58.35;97203.94;10355804;28;20022;-32
2023/06/24 13:05:40;;;;;;;13.17;4.07;;;;;;;20.78;57.56;97202.19;10399067;28;20053;-31
2023/06/24 13:10:40;;;;;;;6.57;3.08;;;;;;;20.91;57.46;97203.94;10377129;28;20034;-31
2023/06/24 13:15:41;;;;;;;14.55;3.28;;;;;;;21.04;57.24;97196.25;10362365;28;20456;-31
2023/06/24 13:20:41;;;;;;;9.97;3.70;;;;;;;20.99;56.84;97190.31;10382546;28;20026;-31
2023/06/24 13:25:41;;;;;;;9.27;3.50;;;;;;;20.90;57.07;97189.50;10362025;28;20039;-33
2023/06/24 13:30:42;;;;;;;9.03;3.33;;;;;;;20.84;57.17;97187.78;10375011;28;20299;-31
2023/06/24 13:35:44;;;;;;;6.07;2.73;;;;;;;20.83;56.95;97181.00;10357523;28;20405;-31
2023/06/24 13:40:44;;;;;;;6.68;2.80;;;;;;;20.85;56.85;97179.31;10341257;28;20038;-32
2023/06/24 13:45:44;;;;;;;6.73;3.13;;;;;;;20.82;56.88;97176.75;10357640;28;20158;-32
2023/06/24 13:50:45;;;;;;;4.77;2.67;;;;;;;20.80;56.78;97170.81;10366019;28;20397;-31
2023/06/24 13:55:45;;;;;;;6.53;2.73;;;;;;;20.91;56.79;97174.25;10370375;28;20414;-31
2023/06/24 14:00:45;;;;;;;5.97;3.20;;;;;;;21.11;56.44;97164.84;10340543;28;20038;-32
2023/06/24 14:05:46;;;;;;;6.50;3.17;;;;;;;21.10;56.37;97160.59;10381645;28;20417;-32
2023/06/24 14:10:46;;;;;;;9.00;3.30;;;;;;;21.00;56.66;97153.00;10371419;28;20475;-31
2023/06/24 14:15:46;;;;;;;5.03;2.93;;;;;;;20.94;56.83;97147.91;10388201;28;20052;-32
2023/06/24 14:20:47;;;;;;;7.27;3.23;;;;;;;20.93;57.00;97147.06;10385337;28;20037;-31
2023/06/24 14:25:47;;;;;;;6.38;3.30;;;;;;;20.91;56.61;97148.78;10387541;28;20142;-31
2023/06/24 14:30:48;;;;;;;5.03;2.97;;;;;;;21.07;56.40;97135.13;10356470;28;20033;-32
2023/06/24 14:35:49;;;;;;;4.53;2.80;;;;;;;21.16;56.58;97121.53;10385360;28;20036;-32
2023/06/24 14:40:49;;;;;;;6.10;2.80;;;;;;;21.05;56.75;97113.09;10332841;28;20059;-33
2023/06/24 14:45:49;;;;;;;5.03;3.13;;;;;;;21.01;57.32;97114.81;10362892;28;20414;-32
2023/06/24 14:50:50;;;;;;;6.07;3.53;;;;;;;20.87;57.52;97108.91;10340652;28;20457;-33
2023/06/24 14:55:50;;;;;;;6.93;2.70;;;;;;;20.91;56.81;97102.97;10369300;28;20545;-32
2023/06/24 15:00:50;;;;;;;3.67;2.20;;;;;;;20.91;56.90;97099.56;10365305;28;20027;-30
2023/06/24 15:05:51;;;;;;;4.47;2.80;;;;;;;21.04;57.17;97099.50;10331582;28;20035;-30
2023/06/24 15:10:53;;;;;;;4.67;3.27;;;;;;;21.17;56.98;97090.97;10339205;28;20022;-31
2023/06/24 15:15:56;;;;;;;5.13;2.90;;;;;;;21.12;57.20;97084.19;10331197;28;20054;-31
2023/06/24 15:20:56;;;;;;;4.93;2.88;;;;;;;21.03;57.01;97082.53;10339756;28;20125;-31
2023/06/24 15:25:56;;;;;;;3.67;2.50;;;;;;;20.96;56.79;97080.03;10352550;28;20409;-30
2023/06/24 15:30:57;;;;;;;4.00;2.33;;;;;;;20.90;57.37;97080.06;10355460;28;20553;-30
2023/06/24 15:35:59;;;;;;;8.57;3.07;;;;;;;20.91;57.08;97071.56;10333084;28;20180;-31
2023/06/24 15:40:59;;;;;;;3.20;2.38;;;;;;;20.91;56.95;97072.44;10360245;28;20391;-31
2023/06/24 15:46:00;;;;;;;3.20;2.10;;;;;;;21.11;57.08;97073.16;10364544;28;20038;-32
2023/06/24 15:51:00;;;;;;;5.77;2.93;;;;;;;21.19;57.27;97073.97;10360186;28;20517;-31
2023/06/24 15:56:01;;;;;;;4.05;2.50;;;;;;;21.10;57.25;97066.41;10368249;28;20120;-33
2023/06/24 16:01:01;;;;;;;3.28;2.65;;;;;;;21.00;57.33;97071.53;10377547;28;20070;-32
2023/06/24 16:06:02;;;;;;;3.05;2.17;;;;;;;20.97;57.24;97048.63;10355867;28;20042;-33
2023/06/24 16:11:04;;;;;;;5.07;2.97;;;;;;;20.97;58.52;97051.19;10365738;28;20509;-32
2023/06/24 16:16:05;;;;;;;4.15;2.45;;;;;;;20.99;57.60;97046.94;10327823;28;20450;-31
2023/06/24 16:21:05;;;;;;;3.77;3.10;;;;;;;21.00;57.60;97046.94;10360835;28;20033;-31
2023/06/24 16:26:06;;;;;;;5.93;3.03;;;;;;;21.21;57.24;97041.72;10350353;28;20343;-32
2023/06/24 16:31:06;;;;;;;3.10;2.45;;;;;;;21.23;57.22;97034.91;10344334;28;20041;-32
2023/06/24 16:36:06;;;;;;;3.23;2.00;;;;;;;21.11;57.03;97036.66;10336008;28;20045;-32
2023/06/24 16:41:07;;;;;;;3.70;3.00;;;;;;;21.04;57.22;97040.94;10352332;28;20300;-32
2023/06/24 16:46:08;;;;;;;2.58;2.38;;;;;;;21.04;57.32;97038.41;10327456;28;20293;-32
2023/06/24 16:51:11;;;;;;;3.90;2.28;;;;;;;21.03;57.56;97031.63;10350947;28;20034;-32
2023/06/24 16:56:11;;;;;;;4.15;2.22;;;;;;;21.07;57.36;97037.56;10306154;28;20042;-33
2023/06/24 17:01:12;;;;;;;6.60;3.00;;;;;;;21.10;58.01;97019.69;10358504;28;20477;-32
2023/06/24 17:06:13;;;;;;;7.15;3.25;;;;;;;21.27;58.09;97021.31;10354654;28;20040;-33
2023/06/24 17:11:14;;;;;;;8.88;2.75;;;;;;;21.26;57.56;97024.72;10349747;28;20208;-33
2023/06/24 17:16:15;;;;;;;6.00;2.95;;;;;;;21.38;58.36;97021.25;10382813;28;20033;-31
2023/06/24 17:21:16;;;;;;;5.28;2.65;;;;;;;21.20;57.76;97019.66;10369862;28;20041;-32
2023/06/24 17:26:16;;;;;;;7.60;2.67;;;;;;;21.14;57.58;97019.69;10372849;28;20592;-33
2023/06/24 17:31:18;;;;;;;4.85;2.67;;;;;;;21.12;57.63;97023.06;10345605;28;20546;-32
2023/06/24 17:36:18;;;;;;;3.08;2.42;;;;;;;21.10;57.73;97022.25;10344326;28;20045;-32
2023/06/24 17:41:22;;;;;;;6.17;3.30;;;;;;;21.17;58.32;97019.69;10352079;28;20041;-32
2023/06/24 17:46:22;;;;;;;7.47;3.50;;;;;;;21.33;58.24;97023.81;10347448;28;20041;-32
2023/06/24 17:51:23;;;;;;;7.13;2.67;;;;;;;21.30;57.91;97021.28;10332485;28;20406;-33
2023/06/24 17:56:25;;;;;;;9.47;2.90;;;;;;;21.16;57.42;97023.09;10331389;28;20277;-34
2023/06/24 18:01:28;;;;;;;8.18;2.72;;;;;;;21.10;57.77;97023.09;10375222;28;20040;-32
2023/06/24 18:06:31;;;;;;;5.03;2.63;;;;;;;21.08;57.75;97019.72;10337217;28;20137;-32
2023/06/24 18:11:31;;;;;;;3.97;2.80;;;;;;;21.07;57.91;97014.63;10353268;28;20038;-32
2023/06/24 18:16:31;;;;;;;6.07;2.80;;;;;;;21.05;57.83;97024.81;10347388;28;20030;-32
2023/06/24 18:21:32;;;;;;;5.07;4.07;;;;;;;21.17;58.18;97022.22;10365217;28;20033;-32
2023/06/24 18:26:32;;;;;;;4.07;2.73;;;;;;;21.33;57.80;97021.28;10368891;28;20374;-32
2023/06/24 18:31:32;;;;;;;5.97;2.73;;;;;;;21.30;57.61;97025.53;10360706;28;20451;-32
2023/06/24 18:36:33;;;;;;;3.35;2.47;;;;;;;21.16;57.58;97023.09;10363869;28;20036;-36
2023/06/24 18:41:33;;;;;;;3.90;2.90;;;;;;;21.09;57.59;97023.97;10383315;28;20041;-33
2023/06/24 18:46:33;;;;;;;5.87;2.40;;;;;;;21.05;57.85;97019.72;10343051;28;20026;-32
2023/06/24 18:51:34;;;;;;;2.83;2.33;;;;;;;21.06;57.85;97025.69;10354866;28;20498;-32
2023/06/24 18:56:34;;;;;;;4.20;3.77;;;;;;;21.03;57.86;97026.53;10331075;28;20100;-33
2023/06/24 19:01:34;;;;;;;7.43;2.77;;;;;;;21.16;58.06;97023.09;10350616;28;20038;-32
2023/06/24 19:06:35;;;;;;;3.03;2.27;;;;;;;21.35;57.89;97021.25;10347584;28;20046;-32
2023/06/24 19:11:35;;;;;;;3.30;2.40;;;;;;;21.34;57.60;97028.06;10338477;28;20402;-32
2023/06/24 19:16:36;;;;;;;4.50;2.60;;;;;;;21.22;57.54;97017.94;10345526;28;20046;-32
2023/06/24 19:21:36;;;;;;;2.92;2.53;;;;;;;21.12;57.89;97021.38;10354679;28;20293;-32
2023/06/24 19:26:38;;;;;;;2.13;1.92;;;;;;;21.09;57.83;97023.09;10342471;28;20045;-33
2023/06/24 19:31:38;;;;;;;6.07;2.50;;;;;;;21.08;57.73;97029.91;10338643;28;20033;-32
2023/06/24 19:36:38;;;;;;;6.67;2.50;;;;;;;21.07;57.88;97035.84;10355307;28;20057;-32
2023/06/24 19:41:39;;;;;;;4.43;2.70;;;;;;;21.10;58.71;97028.19;10347214;28;20048;-33
2023/06/24 19:46:39;;;;;;;3.95;2.65;;;;;;;21.31;58.06;97035.69;10358594;28;20037;-32
2023/06/24 19:51:40;;;;;;;5.00;2.57;;;;;;;21.34;57.79;97038.25;10336909;28;20434;-33
2023/06/24 19:56:40;;;;;;;7.53;3.50;;;;;;;21.24;58.05;97049.31;10328822;28;20030;-32
2023/06/24 20:01:40;;;;;;;10.70;2.70;;;;;;;21.16;57.92;97045.13;10337386;28;20042;-32
2023/06/24 20:06:41;;;;;;;3.50;2.60;;;;;;;21.13;57.98;97053.63;10332520;28;20042;-32
2023/06/24 20:11:41;;;;;;;3.47;2.50;;;;;;;21.09;57.99;97059.63;10342071;28;20038;-33
2023/06/24 20:16:41;;;;;;;4.10;2.93;;;;;;;21.08;58.18;97052.84;10349230;28;20060;-32
2023/06/24 20:21:42;;;;;;;4.00;2.30;;;;;;;21.07;57.82;97058.75;10348338;28;20540;-32
2023/06/24 20:26:42;;;;;;;4.70;2.70;;;;;;;21.29;58.01;97050.16;10370345;28;20038;-31
2023/06/24 20:31:42;;;;;;;7.83;2.73;;;;;;;21.38;57.80;97057.75;10365426;28;20303;-32
2023/06/24 20:36:43;;;;;;;2.73;2.53;;;;;;;21.29;57.62;97059.50;10365907;28;20665;-32
2023/06/24 20:41:43;;;;;;;2.30;2.00;;;;;;;21.18;57.57;97061.25;10369664;28;20026;-36
2023/06/24 20:46:43;;;;;;;2.97;2.27;;;;;;;21.12;57.63;97062.13;10358301;28;20549;-36
2023/06/24 20:51:46;;;;;;;4.07;2.70;;;;;;;21.10;57.41;97057.91;10366279;28;20045;-33
2023/06/24 20:56:47;;;;;;;4.72;2.50;;;;;;;21.08;57.76;97059.59;10369048;28;20041;-33
2023/06/24 21:01:47;;;;;;;3.60;2.07;;;;;;;21.09;57.52;97069.78;10381259;28;20037;-32
2023/06/24 21:06:47;;;;;;;5.17;3.10;;;;;;;21.31;56.87;97061.16;10356914;28;20041;-32
2023/06/24 21:11:48;;;;;;;3.57;3.27;;;;;;;21.37;56.36;97058.59;10358358;28;20064;-32
2023/06/24 21:16:48;;;;;;;4.63;3.17;;;;;;;21.26;56.82;97070.56;10369606;28;20045;-32
2023/06/24 21:21:48;;;;;;;4.67;3.10;;;;;;;21.15;57.02;97064.66;10335245;28;20037;-32
2023/06/24 21:26:49;;;;;;;3.90;2.30;;;;;;;21.11;57.38;97069.75;10346986;28;20041;-32
2023/06/24 21:31:49;;;;;;;2.80;2.33;;;;;;;21.09;57.38;97071.47;10363608;28;20033;-32
2023/06/24 21:36:51;;;;;;;3.73;2.60;;;;;;;21.04;57.38;97068.97;10377406;28;20379;-38
2023/06/24 21:41:52;;;;;;;4.25;2.78;;;;;;;21.06;57.25;97067.25;10380741;28;20033;-32
2023/06/24 21:46:52;;;;;;;3.03;2.80;;;;;;;21.20;57.04;97078.22;10387082;28;20030;-32
2023/06/24 21:51:57;;;;;;;3.20;2.90;;;;;;;21.38;56.86;97064.56;10366236;28;20034;-32
2023/06/24 21:56:57;;;;;;;4.30;2.80;;;;;;;21.33;56.71;97064.59;10369828;28;20422;-32
2023/06/24 22:01:58;;;;;;;3.60;2.60;;;;;;;21.21;57.10;97057.00;10370788;28;20044;-32
2023/06/24 22:06:58;;;;;;;3.23;2.93;;;;;;;21.12;57.16;97051.94;10359237;28;20104;-32
2023/06/24 22:11:58;;;;;;;2.80;2.50;;;;;;;21.09;56.85;97057.06;10373591;28;20041;-32
2023/06/24 22:16:59;;;;;;;10.10;2.38;;;;;;;21.06;57.30;97048.59;10388829;28;20029;-32
2023/06/24 22:21:59;;;;;;;2.40;2.20;;;;;;;21.05;57.33;97050.28;10375228;28;20041;-33
2023/06/24 22:26:59;;;;;;;2.67;2.43;;;;;;;21.07;57.39;97047.75;10366075;28;20046;-32
2023/06/24 22:32:00;;;;;;;4.63;3.27;;;;;;;21.30;56.85;97031.47;10379558;28;20037;-32
2023/06/24 22:37:00;;;;;;;2.77;2.50;;;;;;;21.38;56.56;97037.34;10358132;28;20226;-32
2023/06/24 22:42:00;;;;;;;2.87;2.53;;;;;;;21.28;56.73;97032.31;10380951;28;20409;-32
2023/06/24 22:47:03;;;;;;;2.50;2.30;;;;;;;21.18;56.89;97029.00;10370184;28;20575;-34
2023/06/24 22:52:04;;;;;;;3.40;2.70;;;;;;;21.13;56.97;97037.53;10389569;28;20318;-33
2023/06/24 22:57:04;;;;;;;2.25;1.85;;;;;;;21.07;57.31;97033.28;10379640;28;20409;-32
2023/06/24 23:02:06;;;;;;;2.57;2.37;;;;;;;21.06;57.09;97026.50;10390491;28;20540;-32
2023/06/24 23:07:06;;;;;;;2.47;2.28;;;;;;;21.05;57.10;97024.00;10380456;28;20087;-32
2023/06/24 23:12:07;;;;;;;2.60;2.40;;;;;;;21.15;56.83;97021.38;10359483;28;20487;-33
2023/06/24 23:17:10;;;;;;;3.22;2.67;;;;;;;21.35;56.43;97009.38;10367467;28;20034;-32
2023/06/24 23:22:16;;;;;;;2.95;2.50;;;;;;;21.36;56.28;97015.28;10385720;28;20084;-32